Time;durP1;ratioP1;P1;durP2;ratioP2;P2;SDS_P1;SDS_P2;PMS_P1;PMS_P2;Temp;Humidity;BMP_temperature;BMP_pressure;BME280_temperature;BME280_humidity;BME280_pressure;Samples;Min_cycle;Max_cycle;Signal;HPM_P1;HPM_P2
2023/06/26 00:00:40;;;;;;;;;5.50;5.50;;;;;27.33;42.83;101272.13;5112715;27;45913;-77
2023/06/26 00:03:15;;;;;;;;;6.75;5.00;;;;;27.31;43.00;101280.28;5098107;27;46036;-75
2023/06/26 00:05:41;;;;;;;;;5.00;4.00;;;;;27.31;43.17;101290.16;5110395;27;45413;-77
2023/06/26 00:08:07;;;;;;;;;6.50;4.75;;;;;27.31;43.10;101292.84;5094095;27;45703;-74
2023/06/26 00:10:33;;;;;;;;;4.25;4.25;;;;;27.28;43.24;101289.38;5095013;27;45565;-75
2023/06/26 00:12:59;;;;;;;;;6.00;3.25;;;;;27.26;43.31;101295.81;5079746;27;46747;-74
2023/06/26 00:15:25;;;;;;;;;3.50;3.50;;;;;27.24;43.12;101295.03;5096059;27;45282;-73
2023/06/26 00:17:51;;;;;;;;;6.50;5.00;;;;;26.96;43.23;101244.72;5093995;27;45716;-74
2023/06/26 00:20:18;;;;;;;;;4.50;4.50;;;;;27.03;42.91;101264.91;5093970;27;45385;-75
2023/06/26 00:22:45;;;;;;;;;5.25;5.25;;;;;26.95;42.95;101256.41;5094884;27;46042;-75
2023/06/26 00:25:10;;;;;;;;;5.50;5.50;;;;;27.03;42.91;101281.91;5094956;27;45507;-75
2023/06/26 00:27:39;;;;;;;;;5.00;5.00;;;;;27.15;42.90;101296.44;5114840;27;45461;-75
2023/06/26 00:30:05;;;;;;;;;3.00;2.25;;;;;26.77;42.71;101247.59;5115153;27;45383;-76
2023/06/26 00:32:31;;;;;;;;;4.00;4.00;;;;;26.96;42.88;101277.81;5114573;27;45386;-75
2023/06/26 00:34:56;;;;;;;;;6.00;5.00;;;;;26.75;42.72;101250.38;5115022;27;45484;-76
2023/06/26 00:37:22;;;;;;;;;5.00;5.00;;;;;26.80;42.86;101258.16;5117472;27;45193;-75
2023/06/26 00:39:48;;;;;;;;;5.00;5.00;;;;;27.04;42.98;101315.00;5098310;27;45518;-73
2023/06/26 00:42:14;;;;;;;;;6.50;5.50;;;;;27.03;43.04;101307.91;5096271;27;45491;-74
2023/06/26 00:44:39;;;;;;;;;7.50;4.50;;;;;27.03;42.91;101308.78;5093461;27;46038;-75
2023/06/26 00:47:07;;;;;;;;;6.00;4.75;;;;;27.02;43.16;101307.03;5093671;27;45373;-74
2023/06/26 00:49:33;;;;;;;;;5.00;4.00;;;;;26.99;42.92;101307.22;5095710;27;45381;-74
2023/06/26 00:51:59;;;;;;;;;5.00;5.00;;;;;26.84;43.01;101287.47;5078826;27;45505;-75
2023/06/26 00:54:25;;;;;;;;;5.25;3.25;;;;;26.99;43.58;101319.78;5121478;27;45339;-74
2023/06/26 00:56:53;;;;;;;;;7.50;4.50;;;;;26.80;43.44;101291.28;5120582;27;45358;-75
2023/06/26 00:59:22;;;;;;;;;5.25;3.75;;;;;26.69;43.65;101274.91;5116742;27;45765;-74
2023/06/26 01:01:48;;;;;;;;;3.50;3.50;;;;;26.82;44.05;101300.13;5099805;27;45516;-74
2023/06/26 01:04:17;;;;;;;;;3.25;3.25;;;;;26.75;43.90;101297.88;5096726;27;45528;-75
2023/06/26 01:06:50;;;;;;;;;5.00;3.50;;;;;26.75;43.59;101306.81;5114965;27;45408;-74
2023/06/26 01:09:20;;;;;;;;;6.25;5.00;;;;;26.76;43.77;101305.84;5120692;27;45440;-73
2023/06/26 01:11:46;;;;;;;;;4.00;3.25;;;;;26.78;44.02;101328.13;5118858;27;46501;-73
2023/06/26 01:14:12;;;;;;;;;4.75;4.50;;;;;26.61;44.29;101312.09;5116315;27;45496;-73
2023/06/26 01:16:40;;;;;;;;;8.25;6.50;;;;;26.66;44.25;101328.81;5117380;27;45449;-74
2023/06/26 01:19:11;;;;;;;;;7.00;5.25;;;;;26.49;44.21;101308.25;5115660;27;45516;-76
2023/06/26 01:21:42;;;;;;;;;6.25;5.00;;;;;26.62;44.33;101338.00;5117711;27;45415;-74
2023/06/26 01:24:20;;;;;;;;;5.50;5.50;;;;;26.46;44.92;101319.16;5117641;27;45432;-74
2023/06/26 01:26:51;;;;;;;;;5.50;5.50;;;;;26.42;44.63;101315.75;5098909;27;45350;-74
2023/06/26 01:29:23;;;;;;;;;7.25;5.25;;;;;26.53;44.79;101339.34;5110093;27;45508;-74
2023/06/26 01:31:52;;;;;;;;;5.25;5.25;;;;;26.48;44.89;101354.88;5117103;27;45555;-73
2023/06/26 01:34:18;;;;;;;;;7.00;5.25;;;;;26.49;44.63;101347.66;5105270;27;45460;-74
2023/06/26 01:36:48;;;;;;;;;7.25;6.75;;;;;26.47;44.72;101350.44;5100187;27;45379;-74
2023/06/26 01:39:21;;;;;;;;;4.50;4.50;;;;;26.38;44.60;101345.56;5100105;27;45477;-74
2023/06/26 01:41:48;;;;;;;;;6.00;6.00;;;;;26.31;44.50;101336.09;5096153;27;45755;-74
2023/06/26 01:44:29;;;;;;;;;6.25;5.25;;;;;26.37;44.65;101357.25;5096139;27;45817;-74
2023/06/26 01:47:03;;;;;;;;;5.25;5.25;;;;;26.37;44.71;101373.38;5098177;27;45496;-74
2023/06/26 01:49:49;;;;;;;;;30.33;25.00;;;;;26.32;44.91;101372.75;5100659;27;45381;-74
2023/06/26 01:52:28;;;;;;;;;16.33;14.00;;;;;26.13;44.79;101360.31;5098658;27;47572;-74
2023/06/26 01:55:07;;;;;;;;;9.75;8.00;;;;;26.07;45.21;101347.22;5095642;27;45478;-75
2023/06/26 01:57:35;;;;;;;;;8.75;8.50;;;;;26.24;45.20;101378.53;5099043;27;45705;-76
2023/06/26 02:00:05;;;;;;;;;7.75;7.25;;;;;25.87;44.87;101325.94;5100043;27;45485;-75
2023/06/26 02:02:31;;;;;;;;;9.50;7.00;;;;;26.19;44.96;101378.75;5099732;27;46371;-76
2023/06/26 02:04:56;;;;;;;;;11.25;8.25;;;;;26.18;44.79;101385.09;5098276;27;45516;-77
2023/06/26 02:07:22;;;;;;;;;10.00;7.00;;;;;26.11;44.51;101374.78;5115414;27;45518;-75
2023/06/26 02:09:47;;;;;;;;;8.75;7.50;;;;;26.11;44.89;101389.06;5115181;27;45373;-74
2023/06/26 02:12:13;;;;;;;;;10.50;8.25;;;;;26.08;44.65;101394.59;5114891;27;46526;-78
2023/06/26 02:14:39;;;;;;;;;8.50;8.00;;;;;26.00;44.69;101392.28;5119127;27;45500;-76
2023/06/26 02:17:06;;;;;;;;;8.00;6.00;;;;;25.89;44.92;101380.38;5120784;27;45435;-75
2023/06/26 02:19:32;;;;;;;;;8.00;6.75;;;;;25.81;45.05;101389.66;5121013;27;45464;-77
2023/06/26 02:21:58;;;;;;;;;5.00;4.50;;;;;25.83;45.05;101404.84;5120564;27;45437;-76
2023/06/26 02:24:23;;;;;;;;;7.00;7.00;;;;;25.59;45.24;101367.56;5118497;27;45461;-73
2023/06/26 02:26:52;;;;;;;;;7.25;5.00;;;;;25.78;45.04;101405.94;5116036;27;45940;-73
2023/06/26 02:29:18;;;;;;;;;7.00;7.00;;;;;25.75;44.69;101405.22;5116273;27;45285;-73
2023/06/26 02:31:43;;;;;;;;;4.25;4.00;;;;;25.70;44.73;101409.94;5119768;27;46003;-74
2023/06/26 02:34:10;;;;;;;;;5.75;3.00;;;;;25.69;44.67;101409.06;5115719;27;45698;-73
2023/06/26 02:36:36;;;;;;;;;4.00;4.00;;;;;25.53;44.52;101394.69;5116429;27;45697;-73
2023/06/26 02:39:01;;;;;;;;;5.75;4.50;;;;;25.41;45.07;101372.03;5116587;27;45459;-73
2023/06/26 02:41:27;;;;;;;;;4.00;4.00;;;;;25.61;44.19;101416.66;5118477;27;45936;-72
2023/06/26 02:43:52;;;;;;;;;3.50;3.00;;;;;25.56;44.22;101413.34;5120274;27;45428;-73
2023/06/26 02:46:18;;;;;;;;;3.75;2.25;;;;;25.55;44.03;101416.94;5120253;27;45512;-73
2023/06/26 02:48:44;;;;;;;;;7.25;3.75;;;;;25.57;44.12;101428.47;5102079;27;45502;-73
2023/06/26 02:51:09;;;;;;;;;1.50;1.50;;;;;25.53;43.87;101424.19;5118658;27;45293;-73
2023/06/26 02:53:36;;;;;;;;;2.25;2.00;;;;;25.47;43.52;101441.47;5115743;27;45651;-72
2023/06/26 02:56:02;;;;;;;;;2.00;2.00;;;;;25.45;43.51;101421.91;5115885;27;45958;-74
2023/06/26 02:58:27;;;;;;;;;3.25;1.75;;;;;25.48;43.64;101437.84;5116071;27;45333;-72
2023/06/26 03:00:53;;;;;;;;;4.00;3.00;;;;;25.33;43.42;101426.06;5114994;27;46359;-74
2023/06/26 03:03:19;;;;;;;;;2.00;2.00;;;;;25.35;43.04;101428.69;5116041;27;45378;-74
2023/06/26 03:05:44;;;;;;;;;1.75;1.75;;;;;25.44;43.24;101454.16;5108032;27;45349;-73
2023/06/26 03:08:10;;;;;;;;;1.25;1.25;;;;;25.41;43.45;101451.63;5099297;27;45471;-73
2023/06/26 03:10:36;;;;;;;;;2.00;2.00;;;;;25.33;43.23;101449.34;5095339;27;46540;-71
2023/06/26 03:13:02;;;;;;;;;3.50;2.00;;;;;25.33;43.43;101454.69;5094326;27;45464;-73
2023/06/26 03:15:27;;;;;;;;;2.00;2.00;;;;;25.27;43.42;101455.88;5099045;27;45440;-73
2023/06/26 03:17:53;;;;;;;;;2.50;2.00;;;;;25.23;43.66;101448.91;5094835;27;45469;-77
2023/06/26 03:20:19;;;;;;;;;2.00;2.00;;;;;25.03;43.34;101420.31;5096038;27;45818;-72
2023/06/26 03:22:45;;;;;;;;;2.00;2.00;;;;;25.05;43.74;101444.38;5079225;27;45713;-74
2023/06/26 03:25:10;;;;;;;;;2.00;2.00;;;;;25.06;43.39;101443.47;5094530;27;45444;-76
2023/06/26 03:27:36;;;;;;;;;5.00;2.00;;;;;24.88;43.64;101418.38;5095216;27;45339;-77
2023/06/26 03:30:02;;;;;;;;;2.00;2.00;;;;;25.04;43.63;101448.88;5094704;27;45626;-75
2023/06/26 03:32:28;;;;;;;;;2.00;2.00;;;;;25.12;44.02;101462.78;5094703;27;45413;-77
2023/06/26 03:34:53;;;;;;;;;5.25;2.00;;;;;24.99;43.91;101445.56;5094452;27;45501;-76
2023/06/26 03:37:20;;;;;;;;;3.75;3.75;;;;;25.01;43.54;101458.84;5094543;27;45457;-76
2023/06/26 03:39:45;;;;;;;;;4.75;2.25;;;;;25.05;43.57;101468.50;5094395;27;45736;-76
2023/06/26 03:42:11;;;;;;;;;2.00;2.00;;;;;24.96;44.20;101461.75;5094502;27;45471;-74
2023/06/26 03:44:37;;;;;;;;;3.25;2.00;;;;;24.76;44.11;101438.59;5096943;27;45320;-74
2023/06/26 03:47:02;;;;;;;;;2.00;2.00;;;;;24.76;44.08;101443.94;5099621;27;45365;-75
2023/06/26 03:49:28;;;;;;;;;3.00;3.00;;;;;24.92;44.22;101479.81;5098927;27;45699;-74
2023/06/26 03:51:53;;;;;;;;;3.50;3.50;;;;;24.89;44.56;101488.00;5098955;27;45335;-72
2023/06/26 03:54:22;;;;;;;;;3.00;2.00;;;;;24.70;44.72;101468.31;5099208;27;45317;-74
2023/06/26 03:56:48;;;;;;;;;3.00;3.00;;;;;24.80;44.55;101488.41;5098959;27;45516;-74
2023/06/26 03:59:14;;;;;;;;;3.00;3.00;;;;;24.89;45.46;101503.19;5098010;27;46186;-74
2023/06/26 04:01:40;;;;;;;;;6.75;3.50;;;;;24.89;45.17;101506.75;5098554;27;45448;-75
2023/06/26 04:04:06;;;;;;;;;2.00;2.00;;;;;24.74;44.90;101488.69;5097412;27;45244;-74
2023/06/26 04:06:35;;;;;;;;;6.50;3.00;;;;;24.78;45.03;101514.41;5110155;27;45669;-76
2023/06/26 04:09:00;;;;;;;;;4.50;4.25;;;;;24.68;45.14;101505.91;5117704;27;45593;-74
2023/06/26 04:11:26;;;;;;;;;13.00;10.00;;;;;24.61;45.27;101492.88;5115777;27;45400;-74
2023/06/26 04:13:52;;;;;;;;;4.67;4.67;;;;;24.71;46.16;101515.63;5115479;27;45367;-80
2023/06/26 04:16:19;;;;;;;;;2.75;2.00;;;;;24.73;45.07;101521.78;5114594;27;45505;-77
2023/06/26 04:18:44;;;;;;;;;4.00;4.00;;;;;24.78;45.59;101516.22;5082582;27;48153;-76
2023/06/26 04:21:12;;;;;;;;;4.00;2.50;;;;;24.87;45.19;101532.75;5095952;27;45420;-77
2023/06/26 04:23:39;;;;;;;;;4.67;4.00;;;;;24.95;45.46;101530.56;5099347;27;45432;-79
2023/06/26 04:26:05;;;;;;;;;4.25;4.00;;;;;24.67;45.59;101480.03;5102440;27;45724;-79
2023/06/26 04:28:34;;;;;;;;;3.50;1.75;;;;;24.87;44.70;101505.09;5107242;27;45295;-80
2023/06/26 04:31:03;;;;;;;;;3.75;3.00;;;;;25.05;44.70;101539.06;5108136;27;45421;-77
2023/06/26 04:33:30;;;;;;;;;6.00;6.00;;;;;25.08;44.97;101538.03;5105830;27;45327;-79
2023/06/26 04:35:56;;;;;;;;;4.67;4.67;;;;;25.14;45.15;101556.53;5106622;27;45402;-77
2023/06/26 04:38:22;;;;;;;;;4.00;3.50;;;;;25.17;44.93;101545.66;5105390;27;46507;-81
2023/06/26 04:40:49;;;;;;;;;7.00;4.00;;;;;25.04;44.72;101515.88;5105424;27;45331;-80
2023/06/26 04:43:15;;;;;;;;;4.00;3.00;;;;;25.17;44.43;101545.66;5103646;27;45504;-78
2023/06/26 04:45:41;;;;;;;;;3.75;3.00;;;;;24.62;44.86;101455.28;5103057;27;45603;-79
2023/06/26 04:48:07;;;;;;;;;2.50;2.00;;;;;25.10;44.52;101528.13;5105230;27;46355;-80
2023/06/26 04:50:35;;;;;;;;;6.25;3.25;;;;;25.28;44.35;101542.53;5101051;27;45485;-80
2023/06/26 04:53:02;;;;;;;;;4.00;3.00;;;;;25.29;44.69;101557.66;5099396;27;45793;-77
2023/06/26 04:55:28;;;;;;;;;5.50;3.00;;;;;25.30;44.56;101560.28;5103477;27;45435;-77
2023/06/26 04:57:53;;;;;;;;;3.00;3.00;;;;;25.21;44.34;101535.72;5102493;27;45986;-78
2023/06/26 05:00:24;;;;;;;;;4.00;4.00;;;;;25.28;44.24;101546.06;5098174;27;45566;-79
2023/06/26 05:02:58;;;;;;;;;3.50;3.00;;;;;25.08;44.48;101504.09;5079269;27;45514;-79
2023/06/26 05:05:25;;;;;;;;;4.25;4.25;;;;;25.34;44.25;101537.75;5100797;27;45323;-80
2023/06/26 05:07:53;;;;;;;;;3.50;3.50;;;;;25.42;44.18;101552.59;5097966;27;45611;-75
2023/06/26 05:10:19;;;;;;;;;7.50;5.00;;;;;25.34;44.27;101548.47;5101954;27;45632;-75
2023/06/26 05:12:46;;;;;;;;;5.75;3.00;;;;;24.96;44.11;101497.50;5118345;27;45436;-73
2023/06/26 05:15:11;;;;;;;;;3.50;3.00;;;;;25.32;44.41;101554.84;5120283;27;45495;-73
2023/06/26 05:17:37;;;;;;;;;4.50;2.25;;;;;25.35;44.03;101566.28;5122622;27;45492;-74
2023/06/26 05:20:04;;;;;;;;;3.00;3.00;;;;;25.32;44.35;101587.91;5119490;27;45470;-78
2023/06/26 05:22:32;;;;;;;;;5.00;3.50;;;;;24.83;44.35;101490.94;5117382;27;45497;-78
2023/06/26 05:25:00;;;;;;;;;4.00;3.00;;;;;25.26;44.29;101547.09;5122787;27;45402;-80
2023/06/26 05:27:26;;;;;;;;;5.75;3.50;;;;;25.41;44.13;101580.34;5099522;27;46494;-80
2023/06/26 05:29:52;;;;;;;;;6.25;4.00;;;;;25.31;44.21;101562.00;5119531;27;45487;-80
2023/06/26 05:32:19;;;;;;;;;3.75;3.50;;;;;24.94;44.09;101485.09;5118908;27;45722;-82
2023/06/26 05:34:51;;;;;;;;;6.00;4.00;;;;;25.28;43.91;101527.31;5117224;27;45717;-79
2023/06/26 05:37:21;;;;;;;;;3.75;3.50;;;;;25.74;43.72;101594.84;5121352;27;46241;-82
2023/06/26 05:39:47;;;;;;;;;5.25;4.25;;;;;25.77;43.06;101597.38;5102887;27;45337;-78
2023/06/26 05:42:17;;;;;;;;;10.00;4.00;;;;;25.70;43.65;101597.72;5078972;27;45350;-74
2023/06/26 05:44:42;;;;;;;;;7.00;5.00;;;;;25.48;43.92;101563.03;5102354;27;45633;-73
2023/06/26 05:47:09;;;;;;;;;3.25;3.25;;;;;25.33;43.56;101535.13;5099196;27;46784;-75
2023/06/26 05:49:34;;;;;;;;;6.00;4.00;;;;;25.55;43.42;101586.78;5113687;27;46233;-81
2023/06/26 05:52:00;;;;;;;;;7.00;5.00;;;;;25.53;43.56;101575.28;5114579;27;45454;-77
2023/06/26 05:54:26;;;;;;;;;7.75;7.00;;;;;25.59;43.87;101574.13;5106135;27;45527;-80
2023/06/26 05:56:59;;;;;;;;;5.25;5.25;;;;;25.46;43.67;101557.75;5107773;27;46425;-80
2023/06/26 05:59:39;;;;;;;;;4.75;4.50;;;;;25.61;43.98;101561.50;5107628;27;45465;-75
2023/06/26 06:02:06;;;;;;;;;5.75;5.00;;;;;25.67;43.29;101574.59;5107826;27;45878;-77
2023/06/26 06:04:32;;;;;;;;;6.00;4.50;;;;;25.77;43.33;101597.38;5107712;27;45441;-81
2023/06/26 06:06:58;;;;;;;;;5.00;4.00;;;;;25.83;43.08;101592.66;5104947;27;45637;-81
2023/06/26 06:09:24;;;;;;;;;5.50;5.00;;;;;25.92;43.00;101592.25;5110227;27;45343;-80
2023/06/26 06:11:53;;;;;;;;;9.75;5.00;;;;;25.56;42.62;101537.59;5107178;27;45665;-78
2023/06/26 06:14:19;;;;;;;;;5.50;5.50;;;;;25.61;42.61;101521.28;5106538;27;45459;-78
2023/06/26 06:16:44;;;;;;;;;7.00;5.00;;;;;26.11;42.49;101598.47;5104947;27;46725;-79
2023/06/26 06:19:13;;;;;;;;;4.75;4.75;;;;;26.18;42.22;101593.66;5107464;27;45448;-76
2023/06/26 06:21:39;;;;;;;;;5.50;5.50;;;;;26.25;42.04;101591.53;5111594;27;45357;-77
2023/06/26 06:24:09;;;;;;;;;5.50;5.25;;;;;25.98;41.92;101552.56;5117332;27;45518;-79
2023/06/26 06:26:36;;;;;;;;;7.75;6.00;;;;;26.31;41.94;101593.91;5095438;27;47053;-79
2023/06/26 06:29:03;;;;;;;;;6.25;5.00;;;;;26.34;41.69;101589.25;5095277;27;45573;-79
2023/06/26 06:31:28;;;;;;;;;3.50;3.50;;;;;26.29;41.71;101587.72;5096391;27;45530;-77
2023/06/26 06:33:55;;;;;;;;;9.50;6.50;;;;;26.39;41.38;101597.94;5096491;27;45535;-80
2023/06/26 06:36:24;;;;;;;;;10.25;6.75;;;;;26.41;41.68;101616.66;5096048;27;45959;-81
2023/06/26 06:38:50;;;;;;;;;6.00;5.00;;;;;26.38;41.66;101616.81;5096101;27;45514;-80
2023/06/26 06:41:17;;;;;;;;;5.50;4.50;;;;;26.08;41.61;101568.19;5095882;27;45556;-80
2023/06/26 06:43:42;;;;;;;;;6.75;6.75;;;;;26.18;41.10;101602.56;5096987;27;45551;-80
2023/06/26 06:46:08;;;;;;;;;10.50;8.50;;;;;26.43;41.05;101625.50;5097419;27;46635;-78
2023/06/26 06:48:35;;;;;;;;;7.25;7.25;;;;;26.35;41.17;101595.50;5095599;27;45410;-78
2023/06/26 06:51:01;;;;;;;;;7.25;5.75;;;;;26.61;41.38;101639.88;5079478;27;45892;-77
2023/06/26 06:53:26;;;;;;;;;5.00;5.00;;;;;26.67;40.85;101622.53;5100739;27;45670;-74
2023/06/26 06:55:52;;;;;;;;;6.75;5.75;;;;;26.59;40.64;101596.94;5080100;27;46626;-77
2023/06/26 06:58:22;;;;;;;;;5.50;4.25;;;;;26.86;40.37;101626.91;5097234;27;45375;-79
2023/06/26 07:00:49;;;;;;;;;10.50;5.25;;;;;26.99;40.03;101629.81;5096132;27;45773;-77
2023/06/26 07:03:15;;;;;;;;;7.75;4.50;;;;;26.60;40.00;101552.13;5097782;27;45709;-80
2023/06/26 07:05:44;;;;;;;;;5.25;5.25;;;;;27.12;40.19;101631.84;5083499;27;46721;-79
2023/06/26 07:08:09;;;;;;;;;5.00;4.00;;;;;26.57;40.00;101536.19;5095941;27;45436;-77
2023/06/26 07:10:36;;;;;;;;;7.00;5.00;;;;;27.33;39.81;101632.53;5095719;27;45560;-75
2023/06/26 07:13:02;;;;;;;;;5.00;4.75;;;;;27.33;39.46;101629.84;5095304;27;45260;-75
2023/06/26 07:15:28;;;;;;;;;6.50;5.00;;;;;27.36;39.07;101626.97;5095844;27;46376;-75
2023/06/26 07:17:53;;;;;;;;;8.00;6.75;;;;;27.28;39.25;101624.72;5095170;27;45488;-76
2023/06/26 07:20:19;;;;;;;;;2.75;2.75;;;;;27.36;39.16;101633.25;5095629;27;45840;-77
2023/06/26 07:22:45;;;;;;;;;6.00;3.00;;;;;26.54;39.29;101528.28;5096495;27;45352;-74
2023/06/26 07:25:11;;;;;;;;;3.00;3.00;;;;;26.86;39.05;101577.63;5094852;27;46309;-74
2023/06/26 07:27:38;;;;;;;;;4.00;4.00;;;;;27.30;38.83;101636.25;5095052;27;45288;-75
2023/06/26 07:30:04;;;;;;;;;5.25;4.00;;;;;27.18;39.10;101627.00;5095079;27;45754;-76
2023/06/26 07:32:30;;;;;;;;;5.00;4.50;;;;;27.10;38.92;101606.84;5095342;27;45402;-76
2023/06/26 07:34:56;;;;;;;;;6.00;5.25;;;;;27.30;38.85;101621.97;5094910;27;45614;-75
2023/06/26 07:37:25;;;;;;;;;6.00;5.00;;;;;27.33;38.66;101628.03;5094776;27;45322;-77
2023/06/26 07:39:51;;;;;;;;;6.00;4.75;;;;;27.28;38.88;101619.34;5094850;27;45489;-74
2023/06/26 07:42:16;;;;;;;;;5.25;5.25;;;;;26.84;38.39;101536.56;5099118;27;45508;-76
2023/06/26 07:44:43;;;;;;;;;6.00;6.00;;;;;27.54;38.74;101641.25;5080781;27;47608;-75
2023/06/26 07:47:09;;;;;;;;;5.25;5.25;;;;;27.44;38.46;101619.38;5099299;27;45487;-75
2023/06/26 07:49:35;;;;;;;;;4.00;4.00;;;;;27.68;37.75;101644.06;5096609;27;45591;-75
2023/06/26 07:52:01;;;;;;;;;7.75;5.50;;;;;27.82;37.72;101654.06;5094923;27;45514;-77
2023/06/26 07:54:26;;;;;;;;;5.50;4.50;;;;;27.90;37.37;101654.50;5094676;27;45546;-75
2023/06/26 07:57:04;;;;;;;;;5.25;5.00;;;;;27.81;37.36;101655.00;5093922;27;45539;-76
2023/06/26 07:59:30;;;;;;;;;5.25;3.50;;;;;27.49;37.33;101599.31;5095311;27;45405;-76
2023/06/26 08:01:57;;;;;;;;;5.50;5.50;;;;;27.40;37.79;101620.50;5083339;27;45585;-77
2023/06/26 08:04:26;;;;;;;;;4.50;4.50;;;;;27.16;38.40;101647.72;5114978;27;46650;-76
2023/06/26 08:06:54;;;;;;;;;6.25;4.25;;;;;27.19;38.90;101665.50;5114674;27;45478;-76
2023/06/26 08:09:21;;;;;;;;;5.00;5.00;;;;;27.24;38.05;101639.28;5118087;27;45476;-77
2023/06/26 08:11:47;;;;;;;;;6.00;5.00;;;;;27.56;37.74;101659.06;5115317;27;45650;-76
2023/06/26 08:14:13;;;;;;;;;6.25;4.50;;;;;27.64;37.44;101648.72;5114717;27;47031;-76
2023/06/26 08:16:40;;;;;;;;;4.25;4.25;;;;;27.47;37.19;101633.50;5115598;27;45301;-77
2023/06/26 08:19:07;;;;;;;;;5.25;5.00;;;;;27.59;37.83;101660.72;5113446;27;45486;-76
2023/06/26 08:21:32;;;;;;;;;3.50;3.50;;;;;27.56;37.72;101666.25;5119642;27;45235;-76
2023/06/26 08:23:58;;;;;;;;;7.25;6.00;;;;;27.49;37.13;101674.66;5120288;27;45547;-79
2023/06/26 08:26:23;;;;;;;;;4.25;4.25;;;;;27.23;37.50;101645.63;5117638;27;45510;-78
2023/06/26 08:28:52;;;;;;;;;7.25;4.25;;;;;27.20;37.13;101629.66;5115027;27;45337;-77
2023/06/26 08:31:19;;;;;;;;;5.00;5.00;;;;;27.39;36.78;101625.00;5096364;27;45472;-76
2023/06/26 08:33:44;;;;;;;;;3.50;3.50;;;;;27.63;37.09;101665.84;5114077;27;46361;-77
2023/06/26 08:36:10;;;;;;;;;6.25;4.00;;;;;27.83;35.98;101670.13;5114262;27;45466;-73
2023/06/26 08:38:35;;;;;;;;;5.25;4.00;;;;;27.76;35.56;101657.06;5109057;27;45819;-73
2023/06/26 08:41:01;;;;;;;;;4.25;4.25;;;;;27.35;36.09;101593.84;5095351;27;45558;-74
2023/06/26 08:43:28;;;;;;;;;7.00;5.00;;;;;27.82;36.00;101656.75;5098273;27;45488;-74
2023/06/26 08:45:53;;;;;;;;;5.00;4.00;;;;;27.52;35.75;101641.34;5095047;27;45375;-72
2023/06/26 08:48:21;;;;;;;;;5.00;4.00;;;;;27.44;35.48;101644.44;5098210;27;45546;-74
2023/06/26 08:50:53;;;;;;;;;4.25;3.50;;;;;27.72;35.32;101663.59;5097330;27;45741;-74
2023/06/26 08:53:27;;;;;;;;;4.00;4.00;;;;;27.79;35.26;101667.69;5104779;27;46091;-74
2023/06/26 08:55:54;;;;;;;;;3.60;2.20;;;;;27.72;35.24;101648.31;5109840;27;45474;-74
2023/06/26 08:58:20;;;;;;;;;4.00;4.00;;;;;27.68;35.05;101653.00;5110574;27;45440;-74
2023/06/26 09:00:46;;;;;;;;;7.00;4.00;;;;;27.62;35.32;101657.84;5093238;27;45569;-74
2023/06/26 09:03:13;;;;;;;;;4.00;3.00;;;;;27.46;34.99;101650.63;5096506;27;45937;-73
2023/06/26 09:05:39;;;;;;;;;4.75;4.00;;;;;27.43;35.29;101669.63;5098938;27;45532;-75
2023/06/26 09:08:06;;;;;;;;;4.00;4.00;;;;;27.57;35.70;101670.69;5112301;27;45695;-74
2023/06/26 09:10:31;;;;;;;;;3.00;3.00;;;;;27.70;35.22;101674.44;5078937;27;45973;-74
2023/06/26 09:12:58;;;;;;;;;4.25;3.50;;;;;27.71;34.73;101660.03;5089426;27;45449;-75
2023/06/26 09:15:24;;;;;;;;;4.80;2.80;;;;;27.64;34.00;101626.34;5106253;27;45563;-76
2023/06/26 09:17:50;;;;;;;;;5.25;3.25;;;;;27.95;34.13;101656.94;5115043;27;45358;-74
2023/06/26 09:20:16;;;;;;;;;4.00;4.00;;;;;28.09;34.06;101674.06;5101141;27;45506;-75
2023/06/26 09:22:46;;;;;;;;;2.50;2.50;;;;;28.02;33.43;101631.41;5117649;27;46127;-75
2023/06/26 09:25:12;;;;;;;;;4.00;4.00;;;;;28.31;33.06;101671.00;5115255;27;45526;-74
2023/06/26 09:27:38;;;;;;;;;4.25;4.25;;;;;28.31;33.20;101670.16;5095587;27;45662;-75
2023/06/26 09:30:07;;;;;;;;;3.00;3.00;;;;;28.04;33.36;101632.19;5109873;27;45485;-78
2023/06/26 09:32:39;;;;;;;;;4.75;4.00;;;;;28.11;33.80;101649.75;5094673;27;45380;-74
2023/06/26 09:35:07;;;;;;;;;3.00;3.00;;;;;28.08;33.40;101655.31;5102738;27;45932;-75
2023/06/26 09:37:34;;;;;;;;;6.00;6.00;;;;;28.02;33.99;101656.50;5095885;27;45407;-75
2023/06/26 09:40:00;;;;;;;;;8.25;7.25;;;;;27.99;34.23;101662.06;5099592;27;46016;-75
2023/06/26 09:42:26;;;;;;;;;11.25;8.00;;;;;27.94;34.14;101663.31;5111908;27;45792;-78
2023/06/26 09:44:55;;;;;;;;;8.00;6.50;;;;;28.05;33.64;101672.50;5114955;27;45470;-73
2023/06/26 09:47:21;;;;;;;;;7.50;5.50;;;;;27.92;33.03;101633.75;5114524;27;45295;-71
2023/06/26 09:49:47;;;;;;;;;5.00;5.00;;;;;28.02;33.21;101661.88;5109814;27;46034;-72
2023/06/26 09:52:16;;;;;;;;;6.00;4.50;;;;;28.11;33.32;101663.19;5095701;27;45857;-72
2023/06/26 09:55:10;;;;;;;;;6.00;5.25;;;;;28.15;32.71;101663.91;5117695;27;45432;-74
2023/06/26 09:57:39;;;;;;;;;5.50;5.00;;;;;28.17;32.52;101664.69;5114022;27;45487;-73
2023/06/26 10:00:25;;;;;;;;;6.50;5.00;;;;;28.16;33.50;101671.03;5100218;27;45376;-74
2023/06/26 10:02:51;;;;;;;;;3.50;3.00;;;;;27.58;32.58;101562.97;5106734;27;45441;-74
2023/06/26 10:05:16;;;;;;;;;4.00;4.00;;;;;28.18;32.91;101672.66;5098462;27;45341;-75
2023/06/26 10:07:42;;;;;;;;;5.25;3.00;;;;;28.09;32.84;101651.66;5094379;27;45528;-76
2023/06/26 10:10:16;;;;;;;;;5.75;5.00;;;;;27.88;32.55;101599.88;5094019;27;45321;-74
2023/06/26 10:12:58;;;;;;;;;6.00;4.50;;;;;28.46;31.38;101679.19;5095760;27;45587;-74
2023/06/26 10:15:32;;;;;;;;;4.00;4.00;;;;;28.49;31.09;101689.78;5107077;27;45495;-75
2023/06/26 10:17:59;;;;;;;;;4.00;4.00;;;;;28.59;30.17;101690.09;5101414;27;45453;-73
2023/06/26 10:21:00;;;;;;;;;4.50;3.75;;;;;28.65;30.89;101693.31;5105107;27;45448;-74
2023/06/26 10:23:28;;;;;;;;;3.25;3.25;;;;;28.70;30.91;101688.53;5100638;27;45555;-73
2023/06/26 10:25:58;;;;;;;;;6.00;4.00;;;;;28.61;30.76;101672.88;5104633;27;45507;-72
2023/06/26 10:28:25;;;;;;;;;4.25;3.25;;;;;28.59;30.35;101685.59;5105659;27;45437;-72
2023/06/26 10:30:53;;;;;;;;;4.00;3.00;;;;;28.50;30.27;101668.16;5117471;27;45555;-73
2023/06/26 10:33:20;;;;;;;;;3.25;3.25;;;;;28.44;30.00;101651.44;5109198;27;46243;-73
2023/06/26 10:35:46;;;;;;;;;0.80;0.00;;;;;28.78;30.47;101696.16;5104551;27;45402;-74
2023/06/26 10:38:11;;;;;;;;;3.00;3.00;;;;;28.93;29.58;101686.28;5108159;27;45511;-73
2023/06/26 10:40:51;;;;;;;;;4.00;3.00;;;;;29.06;29.55;101678.31;5093530;27;45345;-73
2023/06/26 10:43:18;;;;;;;;;5.25;3.00;;;;;29.12;30.39;101689.63;5095320;27;45609;-72
2023/06/26 10:45:55;;;;;;;;;4.00;4.00;;;;;28.86;29.91;101639.09;5095077;27;45446;-75
2023/06/26 10:48:28;;;;;;;;;3.80;3.80;;;;;29.20;30.72;101682.91;5095424;27;45419;-72
2023/06/26 10:50:54;;;;;;;;;4.75;3.00;;;;;29.31;31.12;101688.50;5095759;27;45425;-76
2023/06/26 10:53:21;;;;;;;;;3.00;3.00;;;;;29.10;30.22;101651.09;5102857;27;46213;-78
2023/06/26 10:55:56;;;;;;;;;5.20;3.20;;;;;28.76;31.86;101617.22;5106298;27;45367;-79
